sensor_id;sensor_type;location;lat;lon;timestamp;P1;durP1;ratioP1;P2;durP2;ratioP2
54412;SDS011;41533;51.390;0.074;2023-04-06T00:01:04;2.20;;;1.75;;
54412;SDS011;41533;51.390;0.074;2023-04-06T00:03:32;2.22;;;1.75;;
54412;SDS011;41533;51.390;0.074;2023-04-06T00:05:59;3.53;;;1.92;;
54412;SDS011;41533;51.390;0.074;2023-04-06T00:08:28;2.70;;;1.52;;
54412;SDS011;41533;51.390;0.074;2023-04-06T00:10:55;2.05;;;1.63;;
54412;SDS011;41533;51.390;0.074;2023-04-06T00:13:22;1.70;;;1.35;;
54412;SDS011;41533;51.390;0.074;2023-04-06T00:15:50;2.15;;;1.40;;
54412;SDS011;41533;51.390;0.074;2023-04-06T00:18:17;3.10;;;1.38;;
54412;SDS011;41533;51.390;0.074;2023-04-06T00:20:45;3.03;;;1.88;;
54412;SDS011;41533;51.390;0.074;2023-04-06T00:23:12;2.20;;;2.00;;
54412;SDS011;41533;51.390;0.074;2023-04-06T00:25:39;1.95;;;1.50;;
54412;SDS011;41533;51.390;0.074;2023-04-06T00:28:06;2.13;;;1.35;;
54412;SDS011;41533;51.390;0.074;2023-04-06T00:30:34;2.72;;;1.33;;
54412;SDS011;41533;51.390;0.074;2023-04-06T00:33:01;2.90;;;2.08;;
54412;SDS011;41533;51.390;0.074;2023-04-06T00:35:28;1.85;;;1.52;;
54412;SDS011;41533;51.390;0.074;2023-04-06T00:37:55;1.33;;;1.20;;
54412;SDS011;41533;51.390;0.074;2023-04-06T00:40:23;3.13;;;2.17;;
54412;SDS011;41533;51.390;0.074;2023-04-06T00:42:50;2.90;;;1.90;;
54412;SDS011;41533;51.390;0.074;2023-04-06T00:45:17;1.38;;;1.00;;
54412;SDS011;41533;51.390;0.074;2023-04-06T00:47:45;1.83;;;1.50;;
54412;SDS011;41533;51.390;0.074;2023-04-06T00:50:12;1.10;;;1.00;;
54412;SDS011;41533;51.390;0.074;2023-04-06T00:52:39;1.35;;;1.20;;
54412;SDS011;41533;51.390;0.074;2023-04-06T00:55:08;1.38;;;1.20;;
54412;SDS011;41533;51.390;0.074;2023-04-06T00:57:40;1.13;;;1.02;;
54412;SDS011;41533;51.390;0.074;2023-04-06T01:00:08;1.25;;;0.77;;
54412;SDS011;41533;51.390;0.074;2023-04-06T01:02:37;0.80;;;0.80;;
54412;SDS011;41533;51.390;0.074;2023-04-06T01:05:05;2.08;;;1.40;;
54412;SDS011;41533;51.390;0.074;2023-04-06T01:07:45;0.75;;;0.73;;
54412;SDS011;41533;51.390;0.074;2023-04-06T01:10:27;0.93;;;0.63;;
54412;SDS011;41533;51.390;0.074;2023-04-06T01:13:04;2.05;;;1.15;;
54412;SDS011;41533;51.390;0.074;2023-04-06T01:18:43;1.35;;;1.20;;
54412;SDS011;41533;51.390;0.074;2023-04-06T01:21:18;0.73;;;0.73;;
54412;SDS011;41533;51.390;0.074;2023-04-06T01:24:06;1.02;;;0.65;;
54412;SDS011;41533;51.390;0.074;2023-04-06T01:26:47;0.70;;;0.70;;
54412;SDS011;41533;51.390;0.074;2023-04-06T01:29:14;0.70;;;0.70;;
54412;SDS011;41533;51.390;0.074;2023-04-06T01:31:42;0.55;;;0.55;;
54412;SDS011;41533;51.390;0.074;2023-04-06T01:34:10;1.10;;;0.93;;
54412;SDS011;41533;51.390;0.074;2023-04-06T01:36:37;0.60;;;0.60;;
54412;SDS011;41533;51.390;0.074;2023-04-06T01:39:20;1.85;;;0.65;;
54412;SDS011;41533;51.390;0.074;2023-04-06T01:41:47;0.50;;;0.50;;
54412;SDS011;41533;51.390;0.074;2023-04-06T01:44:17;1.08;;;0.85;;
54412;SDS011;41533;51.390;0.074;2023-04-06T01:46:50;0.60;;;0.60;;
54412;SDS011;41533;51.390;0.074;2023-04-06T01:49:19;1.77;;;0.80;;
54412;SDS011;41533;51.390;0.074;2023-04-06T01:51:51;0.50;;;0.50;;
54412;SDS011;41533;51.390;0.074;2023-04-06T01:54:19;0.90;;;0.68;;
54412;SDS011;41533;51.390;0.074;2023-04-06T01:57:07;0.40;;;0.38;;
54412;SDS011;41533;51.390;0.074;2023-04-06T01:59:41;1.05;;;0.95;;
54412;SDS011;41533;51.390;0.074;2023-04-06T02:02:25;0.65;;;0.63;;
54412;SDS011;41533;51.390;0.074;2023-04-06T02:04:59;0.55;;;0.55;;
54412;SDS011;41533;51.390;0.074;2023-04-06T02:07:27;0.50;;;0.50;;
54412;SDS011;41533;51.390;0.074;2023-04-06T02:09:55;0.82;;;0.50;;
54412;SDS011;41533;51.390;0.074;2023-04-06T02:12:31;1.50;;;0.60;;
54412;SDS011;41533;51.390;0.074;2023-04-06T02:14:59;0.60;;;0.60;;
54412;SDS011;41533;51.390;0.074;2023-04-06T02:17:26;2.05;;;0.30;;
54412;SDS011;41533;51.390;0.074;2023-04-06T02:19:54;0.60;;;0.60;;
54412;SDS011;41533;51.390;0.074;2023-04-06T02:22:21;0.70;;;0.70;;
54412;SDS011;41533;51.390;0.074;2023-04-06T02:24:48;0.57;;;0.57;;
54412;SDS011;41533;51.390;0.074;2023-04-06T02:27:15;0.40;;;0.40;;
54412;SDS011;41533;51.390;0.074;2023-04-06T02:29:46;0.50;;;0.50;;
54412;SDS011;41533;51.390;0.074;2023-04-06T02:32:19;1.25;;;0.60;;
54412;SDS011;41533;51.390;0.074;2023-04-06T02:34:47;0.43;;;0.43;;
54412;SDS011;41533;51.390;0.074;2023-04-06T02:37:17;0.40;;;0.40;;
54412;SDS011;41533;51.390;0.074;2023-04-06T02:39:44;0.47;;;0.45;;
54412;SDS011;41533;51.390;0.074;2023-04-06T02:42:12;0.47;;;0.47;;
54412;SDS011;41533;51.390;0.074;2023-04-06T02:44:39;0.52;;;0.52;;
54412;SDS011;41533;51.390;0.074;2023-04-06T02:47:08;0.40;;;0.40;;
54412;SDS011;41533;51.390;0.074;2023-04-06T02:49:37;0.73;;;0.55;;
54412;SDS011;41533;51.390;0.074;2023-04-06T02:52:05;2.28;;;0.55;;
54412;SDS011;41533;51.390;0.074;2023-04-06T02:54:35;0.50;;;0.50;;
54412;SDS011;41533;51.390;0.074;2023-04-06T02:57:03;0.93;;;0.63;;
54412;SDS011;41533;51.390;0.074;2023-04-06T02:59:41;0.75;;;0.50;;
54412;SDS011;41533;51.390;0.074;2023-04-06T03:02:22;0.50;;;0.50;;
54412;SDS011;41533;51.390;0.074;2023-04-06T03:04:50;0.43;;;0.43;;
54412;SDS011;41533;51.390;0.074;2023-04-06T03:07:26;0.70;;;0.57;;
54412;SDS011;41533;51.390;0.074;2023-04-06T03:09:54;0.40;;;0.40;;
54412;SDS011;41533;51.390;0.074;2023-04-06T03:12:22;0.70;;;0.60;;
54412;SDS011;41533;51.390;0.074;2023-04-06T03:15:08;0.50;;;0.50;;
54412;SDS011;41533;51.390;0.074;2023-04-06T03:17:38;0.40;;;0.40;;
54412;SDS011;41533;51.390;0.074;2023-04-06T03:20:11;0.30;;;0.30;;
54412;SDS011;41533;51.390;0.074;2023-04-06T03:22:38;0.20;;;0.20;;
54412;SDS011;41533;51.390;0.074;2023-04-06T03:25:08;0.82;;;0.60;;
54412;SDS011;41533;51.390;0.074;2023-04-06T03:27:35;0.25;;;0.25;;
54412;SDS011;41533;51.390;0.074;2023-04-06T03:30:05;0.40;;;0.40;;
54412;SDS011;41533;51.390;0.074;2023-04-06T03:32:34;0.40;;;0.30;;
54412;SDS011;41533;51.390;0.074;2023-04-06T03:35:01;0.30;;;0.30;;
54412;SDS011;41533;51.390;0.074;2023-04-06T03:37:30;0.30;;;0.30;;
54412;SDS011;41533;51.390;0.074;2023-04-06T03:40:02;0.47;;;0.38;;
54412;SDS011;41533;51.390;0.074;2023-04-06T03:42:29;0.32;;;0.32;;
54412;SDS011;41533;51.390;0.074;2023-04-06T03:45:02;0.40;;;0.40;;
54412;SDS011;41533;51.390;0.074;2023-04-06T03:47:30;0.60;;;0.32;;
54412;SDS011;41533;51.390;0.074;2023-04-06T03:50:02;0.30;;;0.30;;
54412;SDS011;41533;51.390;0.074;2023-04-06T03:52:32;0.30;;;0.30;;
54412;SDS011;41533;51.390;0.074;2023-04-06T03:54:59;0.30;;;0.30;;
54412;SDS011;41533;51.390;0.074;2023-04-06T03:57:27;0.30;;;0.30;;
54412;SDS011;41533;51.390;0.074;2023-04-06T03:59:57;0.30;;;0.30;;
54412;SDS011;41533;51.390;0.074;2023-04-06T04:02:25;0.40;;;0.40;;
54412;SDS011;41533;51.390;0.074;2023-04-06T04:04:53;0.30;;;0.30;;
54412;SDS011;41533;51.390;0.074;2023-04-06T04:07:20;0.50;;;0.40;;
54412;SDS011;41533;51.390;0.074;2023-04-06T04:09:47;0.30;;;0.30;;
54412;SDS011;41533;51.390;0.074;2023-04-06T04:12:14;0.43;;;0.43;;
54412;SDS011;41533;51.390;0.074;2023-04-06T04:14:43;0.22;;;0.22;;
54412;SDS011;41533;51.390;0.074;2023-04-06T04:17:11;0.45;;;0.30;;
54412;SDS011;41533;51.390;0.074;2023-04-06T04:19:38;0.50;;;0.50;;
54412;SDS011;41533;51.390;0.074;2023-04-06T04:22:06;0.70;;;0.50;;
54412;SDS011;41533;51.390;0.074;2023-04-06T04:24:37;1.02;;;0.70;;
54412;SDS011;41533;51.390;0.074;2023-04-06T04:27:05;0.63;;;0.63;;
54412;SDS011;41533;51.390;0.074;2023-04-06T04:29:34;0.57;;;0.57;;
54412;SDS011;41533;51.390;0.074;2023-04-06T04:32:06;1.17;;;0.82;;
54412;SDS011;41533;51.390;0.074;2023-04-06T04:34:33;0.68;;;0.63;;
54412;SDS011;41533;51.390;0.074;2023-04-06T04:37:02;2.05;;;0.60;;
54412;SDS011;41533;51.390;0.074;2023-04-06T04:39:44;0.38;;;0.38;;
54412;SDS011;41533;51.390;0.074;2023-04-06T04:42:12;0.90;;;0.73;;
54412;SDS011;41533;51.390;0.074;2023-04-06T04:44:45;2.45;;;0.70;;
54412;SDS011;41533;51.390;0.074;2023-04-06T04:47:13;0.50;;;0.50;;
54412;SDS011;41533;51.390;0.074;2023-04-06T04:49:44;0.70;;;0.70;;
54412;SDS011;41533;51.390;0.074;2023-04-06T04:52:16;0.85;;;0.85;;
54412;SDS011;41533;51.390;0.074;2023-04-06T04:54:55;1.30;;;0.90;;
54412;SDS011;41533;51.390;0.074;2023-04-06T04:57:26;1.23;;;1.10;;
54412;SDS011;41533;51.390;0.074;2023-04-06T04:59:54;0.43;;;0.43;;
54412;SDS011;41533;51.390;0.074;2023-04-06T05:02:23;1.10;;;0.90;;
54412;SDS011;41533;51.390;0.074;2023-04-06T05:05:17;1.27;;;1.17;;
54412;SDS011;41533;51.390;0.074;2023-04-06T05:07:45;1.08;;;1.00;;
54412;SDS011;41533;51.390;0.074;2023-04-06T05:10:23;1.25;;;0.95;;
54412;SDS011;41533;51.390;0.074;2023-04-06T05:12:57;1.00;;;1.00;;
54412;SDS011;41533;51.390;0.074;2023-04-06T05:15:26;1.35;;;1.20;;
54412;SDS011;41533;51.390;0.074;2023-04-06T05:17:59;2.00;;;0.70;;
54412;SDS011;41533;51.390;0.074;2023-04-06T05:20:31;1.47;;;1.07;;
54412;SDS011;41533;51.390;0.074;2023-04-06T05:22:59;0.93;;;0.80;;
54412;SDS011;41533;51.390;0.074;2023-04-06T05:25:27;1.30;;;0.70;;
54412;SDS011;41533;51.390;0.074;2023-04-06T05:28:00;1.10;;;1.00;;
54412;SDS011;41533;51.390;0.074;2023-04-06T05:30:33;1.15;;;0.70;;
54412;SDS011;41533;51.390;0.074;2023-04-06T05:33:02;0.73;;;0.70;;
54412;SDS011;41533;51.390;0.074;2023-04-06T05:35:42;0.95;;;0.85;;
54412;SDS011;41533;51.390;0.074;2023-04-06T05:38:12;0.93;;;0.85;;
54412;SDS011;41533;51.390;0.074;2023-04-06T05:40:40;1.52;;;1.08;;
54412;SDS011;41533;51.390;0.074;2023-04-06T05:43:11;0.85;;;0.85;;
54412;SDS011;41533;51.390;0.074;2023-04-06T05:45:44;0.80;;;0.68;;
54412;SDS011;41533;51.390;0.074;2023-04-06T05:48:11;1.25;;;0.90;;
54412;SDS011;41533;51.390;0.074;2023-04-06T05:50:39;1.55;;;1.10;;
54412;SDS011;41533;51.390;0.074;2023-04-06T05:53:07;2.53;;;0.95;;
54412;SDS011;41533;51.390;0.074;2023-04-06T05:55:40;1.42;;;0.90;;
54412;SDS011;41533;51.390;0.074;2023-04-06T05:58:12;1.70;;;1.33;;
54412;SDS011;41533;51.390;0.074;2023-04-06T06:00:39;1.63;;;1.05;;
54412;SDS011;41533;51.390;0.074;2023-04-06T06:03:08;0.70;;;0.70;;
54412;SDS011;41533;51.390;0.074;2023-04-06T06:05:39;2.13;;;1.27;;
54412;SDS011;41533;51.390;0.074;2023-04-06T06:08:11;1.63;;;1.17;;
54412;SDS011;41533;51.390;0.074;2023-04-06T06:10:38;1.58;;;1.15;;
54412;SDS011;41533;51.390;0.074;2023-04-06T06:13:10;1.63;;;0.95;;
54412;SDS011;41533;51.390;0.074;2023-04-06T06:15:38;1.40;;;0.98;;
54412;SDS011;41533;51.390;0.074;2023-04-06T06:18:05;1.67;;;1.10;;
54412;SDS011;41533;51.390;0.074;2023-04-06T06:20:33;1.25;;;1.08;;
54412;SDS011;41533;51.390;0.074;2023-04-06T06:23:03;1.33;;;1.08;;
54412;SDS011;41533;51.390;0.074;2023-04-06T06:25:32;1.38;;;1.00;;
54412;SDS011;41533;51.390;0.074;2023-04-06T06:27:59;1.23;;;1.15;;
54412;SDS011;41533;51.390;0.074;2023-04-06T06:30:29;1.35;;;1.25;;
54412;SDS011;41533;51.390;0.074;2023-04-06T06:32:57;1.60;;;1.10;;
54412;SDS011;41533;51.390;0.074;2023-04-06T06:35:25;1.35;;;1.25;;
54412;SDS011;41533;51.390;0.074;2023-04-06T06:37:53;1.17;;;0.93;;
54412;SDS011;41533;51.390;0.074;2023-04-06T06:40:23;1.13;;;0.77;;
54412;SDS011;41533;51.390;0.074;2023-04-06T06:42:52;1.83;;;1.35;;
54412;SDS011;41533;51.390;0.074;2023-04-06T06:45:31;1.63;;;1.08;;
54412;SDS011;41533;51.390;0.074;2023-04-06T06:47:58;1.00;;;0.63;;
54412;SDS011;41533;51.390;0.074;2023-04-06T06:50:26;1.38;;;1.27;;
54412;SDS011;41533;51.390;0.074;2023-04-06T06:52:54;1.15;;;1.05;;
54412;SDS011;41533;51.390;0.074;2023-04-06T06:55:22;2.22;;;1.02;;
54412;SDS011;41533;51.390;0.074;2023-04-06T06:57:49;1.40;;;1.08;;
54412;SDS011;41533;51.390;0.074;2023-04-06T07:00:17;1.80;;;1.45;;
54412;SDS011;41533;51.390;0.074;2023-04-06T07:02:46;1.20;;;0.75;;
54412;SDS011;41533;51.390;0.074;2023-04-06T07:05:15;1.50;;;1.30;;
54412;SDS011;41533;51.390;0.074;2023-04-06T07:07:55;2.72;;;1.00;;
54412;SDS011;41533;51.390;0.074;2023-04-06T07:10:22;3.75;;;1.77;;
54412;SDS011;41533;51.390;0.074;2023-04-06T07:12:50;1.90;;;1.02;;
54412;SDS011;41533;51.390;0.074;2023-04-06T07:15:17;0.75;;;0.75;;
54412;SDS011;41533;51.390;0.074;2023-04-06T07:17:44;1.30;;;1.05;;
54412;SDS011;41533;51.390;0.074;2023-04-06T07:20:12;0.98;;;0.90;;
54412;SDS011;41533;51.390;0.074;2023-04-06T07:22:40;1.65;;;1.30;;
54412;SDS011;41533;51.390;0.074;2023-04-06T07:25:07;1.20;;;1.10;;
54412;SDS011;41533;51.390;0.074;2023-04-06T07:27:35;1.23;;;1.05;;
54412;SDS011;41533;51.390;0.074;2023-04-06T07:30:02;1.58;;;0.90;;
54412;SDS011;41533;51.390;0.074;2023-04-06T07:32:30;0.70;;;0.60;;
54412;SDS011;41533;51.390;0.074;2023-04-06T07:34:58;1.90;;;1.13;;
54412;SDS011;41533;51.390;0.074;2023-04-06T07:37:27;0.90;;;0.90;;
54412;SDS011;41533;51.390;0.074;2023-04-06T07:39:54;1.45;;;0.80;;
54412;SDS011;41533;51.390;0.074;2023-04-06T07:42:22;0.93;;;0.77;;
54412;SDS011;41533;51.390;0.074;2023-04-06T07:44:50;0.95;;;0.80;;
54412;SDS011;41533;51.390;0.074;2023-04-06T07:47:17;1.10;;;0.80;;
54412;SDS011;41533;51.390;0.074;2023-04-06T07:49:44;1.88;;;1.40;;
54412;SDS011;41533;51.390;0.074;2023-04-06T07:52:12;1.35;;;1.20;;
54412;SDS011;41533;51.390;0.074;2023-04-06T07:54:41;1.67;;;0.95;;
54412;SDS011;41533;51.390;0.074;2023-04-06T07:57:11;1.25;;;0.88;;
54412;SDS011;41533;51.390;0.074;2023-04-06T07:59:38;0.77;;;0.77;;
54412;SDS011;41533;51.390;0.074;2023-04-06T08:02:06;2.03;;;1.00;;
54412;SDS011;41533;51.390;0.074;2023-04-06T08:04:35;0.80;;;0.80;;
54412;SDS011;41533;51.390;0.074;2023-04-06T08:07:02;1.33;;;1.00;;
54412;SDS011;41533;51.390;0.074;2023-04-06T08:09:29;0.93;;;0.75;;
54412;SDS011;41533;51.390;0.074;2023-04-06T08:11:57;2.05;;;0.82;;
54412;SDS011;41533;51.390;0.074;2023-04-06T08:14:24;1.38;;;0.88;;
54412;SDS011;41533;51.390;0.074;2023-04-06T08:16:51;0.70;;;0.70;;
54412;SDS011;41533;51.390;0.074;2023-04-06T08:19:18;0.65;;;0.63;;
54412;SDS011;41533;51.390;0.074;2023-04-06T08:21:46;0.60;;;0.50;;
54412;SDS011;41533;51.390;0.074;2023-04-06T08:24:14;1.17;;;0.80;;
54412;SDS011;41533;51.390;0.074;2023-04-06T08:26:41;2.17;;;0.80;;
54412;SDS011;41533;51.390;0.074;2023-04-06T08:29:09;2.20;;;0.63;;
54412;SDS011;41533;51.390;0.074;2023-04-06T08:31:36;1.35;;;0.77;;
54412;SDS011;41533;51.390;0.074;2023-04-06T08:34:04;1.63;;;0.73;;
54412;SDS011;41533;51.390;0.074;2023-04-06T08:36:32;3.25;;;0.73;;
54412;SDS011;41533;51.390;0.074;2023-04-06T08:39:00;1.45;;;0.88;;
54412;SDS011;41533;51.390;0.074;2023-04-06T08:41:27;2.00;;;0.90;;
54412;SDS011;41533;51.390;0.074;2023-04-06T08:43:58;4.72;;;1.00;;
54412;SDS011;41533;51.390;0.074;2023-04-06T08:46:26;3.83;;;0.80;;
54412;SDS011;41533;51.390;0.074;2023-04-06T08:48:57;2.88;;;0.98;;
54412;SDS011;41533;51.390;0.074;2023-04-06T08:51:25;2.08;;;0.80;;
54412;SDS011;41533;51.390;0.074;2023-04-06T08:53:56;2.15;;;0.75;;
54412;SDS011;41533;51.390;0.074;2023-04-06T08:56:24;1.85;;;1.05;;
54412;SDS011;41533;51.390;0.074;2023-04-06T08:58:52;5.88;;;0.70;;
54412;SDS011;41533;51.390;0.074;2023-04-06T09:01:30;1.67;;;0.88;;
54412;SDS011;41533;51.390;0.074;2023-04-06T09:03:59;4.18;;;1.00;;
54412;SDS011;41533;51.390;0.074;2023-04-06T09:06:27;7.82;;;1.10;;
54412;SDS011;41533;51.390;0.074;2023-04-06T09:08:55;2.33;;;0.88;;
54412;SDS011;41533;51.390;0.074;2023-04-06T09:11:23;3.35;;;0.85;;
54412;SDS011;41533;51.390;0.074;2023-04-06T09:13:51;4.97;;;0.80;;
54412;SDS011;41533;51.390;0.074;2023-04-06T09:16:20;2.55;;;1.13;;
54412;SDS011;41533;51.390;0.074;2023-04-06T09:18:47;1.88;;;1.23;;
54412;SDS011;41533;51.390;0.074;2023-04-06T09:21:18;3.50;;;1.00;;
54412;SDS011;41533;51.390;0.074;2023-04-06T09:23:46;3.30;;;0.98;;
54412;SDS011;41533;51.390;0.074;2023-04-06T09:26:16;5.25;;;1.20;;
54412;SDS011;41533;51.390;0.074;2023-04-06T09:28:56;2.80;;;1.23;;
54412;SDS011;41533;51.390;0.074;2023-04-06T09:31:26;6.57;;;1.20;;
54412;SDS011;41533;51.390;0.074;2023-04-06T09:33:53;1.60;;;1.02;;
54412;SDS011;41533;51.390;0.074;2023-04-06T09:36:34;2.35;;;0.80;;
54412;SDS011;41533;51.390;0.074;2023-04-06T09:39:02;2.35;;;0.85;;
54412;SDS011;41533;51.390;0.074;2023-04-06T09:41:31;4.35;;;1.00;;
54412;SDS011;41533;51.390;0.074;2023-04-06T09:44:10;5.72;;;1.13;;
54412;SDS011;41533;51.390;0.074;2023-04-06T09:46:39;7.10;;;1.77;;
54412;SDS011;41533;51.390;0.074;2023-04-06T09:49:24;1.45;;;0.85;;
54412;SDS011;41533;51.390;0.074;2023-04-06T09:51:54;4.97;;;1.52;;
54412;SDS011;41533;51.390;0.074;2023-04-06T09:54:22;3.72;;;0.88;;
54412;SDS011;41533;51.390;0.074;2023-04-06T09:56:57;1.35;;;1.25;;
54412;SDS011;41533;51.390;0.074;2023-04-06T09:59:50;4.65;;;1.33;;
54412;SDS011;41533;51.390;0.074;2023-04-06T10:02:16;4.80;;;1.42;;
54412;SDS011;41533;51.390;0.074;2023-04-06T10:04:50;1.63;;;1.30;;
54412;SDS011;41533;51.390;0.074;2023-04-06T10:07:20;15.20;;;1.65;;
54412;SDS011;41533;51.390;0.074;2023-04-06T10:09:47;3.85;;;1.38;;
54412;SDS011;41533;51.390;0.074;2023-04-06T10:12:15;4.47;;;1.00;;
54412;SDS011;41533;51.390;0.074;2023-04-06T10:14:43;6.80;;;1.17;;
54412;SDS011;41533;51.390;0.074;2023-04-06T10:17:11;7.38;;;1.35;;
54412;SDS011;41533;51.390;0.074;2023-04-06T10:19:44;6.35;;;1.40;;
54412;SDS011;41533;51.390;0.074;2023-04-06T10:22:15;2.20;;;1.00;;
54412;SDS011;41533;51.390;0.074;2023-04-06T10:24:45;5.35;;;1.20;;
54412;SDS011;41533;51.390;0.074;2023-04-06T10:27:12;5.78;;;1.38;;
54412;SDS011;41533;51.390;0.074;2023-04-06T10:29:46;5.93;;;1.05;;
54412;SDS011;41533;51.390;0.074;2023-04-06T10:32:15;4.07;;;1.23;;
54412;SDS011;41533;51.390;0.074;2023-04-06T10:34:43;4.38;;;1.40;;
54412;SDS011;41533;51.390;0.074;2023-04-06T10:37:13;3.00;;;1.10;;
54412;SDS011;41533;51.390;0.074;2023-04-06T10:39:52;3.97;;;1.27;;
54412;SDS011;41533;51.390;0.074;2023-04-06T10:42:25;5.70;;;1.52;;
54412;SDS011;41533;51.390;0.074;2023-04-06T10:44:52;3.58;;;1.10;;
54412;SDS011;41533;51.390;0.074;2023-04-06T10:47:20;2.70;;;1.15;;
54412;SDS011;41533;51.390;0.074;2023-04-06T10:49:47;7.65;;;1.67;;
54412;SDS011;41533;51.390;0.074;2023-04-06T10:52:14;8.38;;;1.35;;
54412;SDS011;41533;51.390;0.074;2023-04-06T10:54:42;3.30;;;1.17;;
54412;SDS011;41533;51.390;0.074;2023-04-06T10:57:14;4.72;;;1.33;;
54412;SDS011;41533;51.390;0.074;2023-04-06T10:59:42;2.13;;;1.00;;
54412;SDS011;41533;51.390;0.074;2023-04-06T11:02:18;2.00;;;1.00;;
54412;SDS011;41533;51.390;0.074;2023-04-06T11:04:53;3.03;;;1.42;;
54412;SDS011;41533;51.390;0.074;2023-04-06T11:07:27;2.65;;;1.08;;
54412;SDS011;41533;51.390;0.074;2023-04-06T11:09:57;2.30;;;0.80;;
54412;SDS011;41533;51.390;0.074;2023-04-06T11:12:41;4.78;;;0.95;;
54412;SDS011;41533;51.390;0.074;2023-04-06T11:15:08;2.38;;;0.75;;
54412;SDS011;41533;51.390;0.074;2023-04-06T11:17:36;1.05;;;0.90;;
54412;SDS011;41533;51.390;0.074;2023-04-06T11:20:04;3.35;;;0.80;;
54412;SDS011;41533;51.390;0.074;2023-04-06T11:22:31;3.13;;;0.82;;
54412;SDS011;41533;51.390;0.074;2023-04-06T11:25:05;1.02;;;0.60;;
54412;SDS011;41533;51.390;0.074;2023-04-06T11:27:34;3.45;;;1.50;;
54412;SDS011;41533;51.390;0.074;2023-04-06T11:30:02;1.42;;;0.85;;
54412;SDS011;41533;51.390;0.074;2023-04-06T11:32:38;4.22;;;1.05;;
54412;SDS011;41533;51.390;0.074;2023-04-06T11:35:06;0.65;;;0.65;;
54412;SDS011;41533;51.390;0.074;2023-04-06T11:37:34;1.77;;;0.77;;
54412;SDS011;41533;51.390;0.074;2023-04-06T11:40:01;4.43;;;1.55;;
54412;SDS011;41533;51.390;0.074;2023-04-06T11:42:28;3.45;;;0.98;;
54412;SDS011;41533;51.390;0.074;2023-04-06T11:44:57;7.72;;;1.15;;
54412;SDS011;41533;51.390;0.074;2023-04-06T11:47:32;5.30;;;1.00;;
54412;SDS011;41533;51.390;0.074;2023-04-06T11:50:09;0.93;;;0.70;;
54412;SDS011;41533;51.390;0.074;2023-04-06T11:52:38;3.80;;;1.42;;
54412;SDS011;41533;51.390;0.074;2023-04-06T11:55:12;3.85;;;1.02;;
54412;SDS011;41533;51.390;0.074;2023-04-06T11:57:41;2.97;;;1.02;;
54412;SDS011;41533;51.390;0.074;2023-04-06T12:00:09;5.78;;;1.20;;
54412;SDS011;41533;51.390;0.074;2023-04-06T12:02:37;4.55;;;1.20;;
54412;SDS011;41533;51.390;0.074;2023-04-06T12:05:08;4.05;;;1.23;;
54412;SDS011;41533;51.390;0.074;2023-04-06T12:07:40;4.90;;;1.10;;
54412;SDS011;41533;51.390;0.074;2023-04-06T12:10:08;6.18;;;1.00;;
54412;SDS011;41533;51.390;0.074;2023-04-06T12:12:37;6.80;;;0.98;;
54412;SDS011;41533;51.390;0.074;2023-04-06T12:15:04;1.38;;;0.85;;
54412;SDS011;41533;51.390;0.074;2023-04-06T12:17:32;10.48;;;1.13;;
54412;SDS011;41533;51.390;0.074;2023-04-06T12:19:59;2.55;;;0.95;;
54412;SDS011;41533;51.390;0.074;2023-04-06T12:22:35;1.65;;;0.85;;
54412;SDS011;41533;51.390;0.074;2023-04-06T12:25:03;4.25;;;1.15;;
54412;SDS011;41533;51.390;0.074;2023-04-06T12:27:30;3.53;;;1.02;;
54412;SDS011;41533;51.390;0.074;2023-04-06T12:29:58;2.72;;;1.08;;
54412;SDS011;41533;51.390;0.074;2023-04-06T12:32:25;3.33;;;1.00;;
54412;SDS011;41533;51.390;0.074;2023-04-06T12:34:52;6.53;;;1.70;;
54412;SDS011;41533;51.390;0.074;2023-04-06T12:37:20;0.90;;;0.70;;
54412;SDS011;41533;51.390;0.074;2023-04-06T12:39:47;3.78;;;1.00;;
54412;SDS011;41533;51.390;0.074;2023-04-06T12:42:14;3.25;;;1.00;;
54412;SDS011;41533;51.390;0.074;2023-04-06T12:44:42;4.63;;;1.17;;
54412;SDS011;41533;51.390;0.074;2023-04-06T12:47:10;2.28;;;0.90;;
54412;SDS011;41533;51.390;0.074;2023-04-06T12:49:38;8.68;;;1.95;;
54412;SDS011;41533;51.390;0.074;2023-04-06T12:52:05;10.02;;;1.45;;
54412;SDS011;41533;51.390;0.074;2023-04-06T12:54:32;3.05;;;0.90;;
54412;SDS011;41533;51.390;0.074;2023-04-06T12:56:59;4.43;;;1.08;;
54412;SDS011;41533;51.390;0.074;2023-04-06T12:59:27;7.15;;;0.90;;
54412;SDS011;41533;51.390;0.074;2023-04-06T13:02:01;3.78;;;1.23;;
54412;SDS011;41533;51.390;0.074;2023-04-06T13:04:30;2.35;;;0.70;;
54412;SDS011;41533;51.390;0.074;2023-04-06T13:06:57;4.30;;;0.88;;
54412;SDS011;41533;51.390;0.074;2023-04-06T13:09:25;1.70;;;0.82;;
54412;SDS011;41533;51.390;0.074;2023-04-06T13:11:52;2.08;;;0.70;;
54412;SDS011;41533;51.390;0.074;2023-04-06T13:14:19;2.97;;;0.70;;
54412;SDS011;41533;51.390;0.074;2023-04-06T13:16:48;4.97;;;0.80;;
54412;SDS011;41533;51.390;0.074;2023-04-06T13:19:15;1.42;;;0.52;;
54412;SDS011;41533;51.390;0.074;2023-04-06T13:21:43;1.23;;;0.50;;
54412;SDS011;41533;51.390;0.074;2023-04-06T13:24:10;3.45;;;0.70;;
54412;SDS011;41533;51.390;0.074;2023-04-06T13:26:38;2.03;;;1.05;;
54412;SDS011;41533;51.390;0.074;2023-04-06T13:29:05;1.77;;;0.70;;
54412;SDS011;41533;51.390;0.074;2023-04-06T13:31:33;1.90;;;0.73;;
54412;SDS011;41533;51.390;0.074;2023-04-06T13:34:00;1.85;;;0.75;;
54412;SDS011;41533;51.390;0.074;2023-04-06T13:36:27;1.05;;;0.60;;
54412;SDS011;41533;51.390;0.074;2023-04-06T13:38:55;1.48;;;0.77;;
54412;SDS011;41533;51.390;0.074;2023-04-06T13:41:23;1.65;;;0.75;;
54412;SDS011;41533;51.390;0.074;2023-04-06T13:43:50;1.42;;;0.60;;
54412;SDS011;41533;51.390;0.074;2023-04-06T13:46:18;6.05;;;0.75;;
54412;SDS011;41533;51.390;0.074;2023-04-06T13:48:45;1.58;;;0.75;;
54412;SDS011;41533;51.390;0.074;2023-04-06T13:51:14;4.15;;;1.02;;
54412;SDS011;41533;51.390;0.074;2023-04-06T13:53:42;3.67;;;0.63;;
54412;SDS011;41533;51.390;0.074;2023-04-06T13:56:09;3.35;;;0.70;;
54412;SDS011;41533;51.390;0.074;2023-04-06T13:58:36;0.57;;;0.55;;
54412;SDS011;41533;51.390;0.074;2023-04-06T14:03:32;1.50;;;0.80;;
54412;SDS011;41533;51.390;0.074;2023-04-06T14:05:59;2.15;;;0.65;;
54412;SDS011;41533;51.390;0.074;2023-04-06T14:08:32;1.52;;;0.95;;
54412;SDS011;41533;51.390;0.074;2023-04-06T14:10:59;3.17;;;1.00;;
54412;SDS011;41533;51.390;0.074;2023-04-06T14:13:26;3.10;;;0.98;;
54412;SDS011;41533;51.390;0.074;2023-04-06T14:15:54;2.83;;;0.70;;
54412;SDS011;41533;51.390;0.074;2023-04-06T14:18:22;1.98;;;1.00;;
54412;SDS011;41533;51.390;0.074;2023-04-06T14:20:55;3.05;;;0.77;;
54412;SDS011;41533;51.390;0.074;2023-04-06T14:23:23;2.67;;;0.60;;
54412;SDS011;41533;51.390;0.074;2023-04-06T14:26:05;1.05;;;0.70;;
54412;SDS011;41533;51.390;0.074;2023-04-06T14:28:37;1.10;;;0.60;;
54412;SDS011;41533;51.390;0.074;2023-04-06T14:31:11;1.52;;;0.90;;
54412;SDS011;41533;51.390;0.074;2023-04-06T14:33:42;3.35;;;1.02;;
54412;SDS011;41533;51.390;0.074;2023-04-06T14:36:12;1.00;;;0.60;;
54412;SDS011;41533;51.390;0.074;2023-04-06T14:38:39;8.75;;;0.82;;
54412;SDS011;41533;51.390;0.074;2023-04-06T14:41:08;3.90;;;0.70;;
54412;SDS011;41533;51.390;0.074;2023-04-06T14:43:35;2.63;;;0.82;;
54412;SDS011;41533;51.390;0.074;2023-04-06T14:46:02;2.13;;;1.08;;
54412;SDS011;41533;51.390;0.074;2023-04-06T14:48:30;1.95;;;1.05;;
54412;SDS011;41533;51.390;0.074;2023-04-06T14:50:57;0.63;;;0.63;;
54412;SDS011;41533;51.390;0.074;2023-04-06T14:53:25;4.50;;;1.10;;
54412;SDS011;41533;51.390;0.074;2023-04-06T14:55:53;0.98;;;0.82;;
54412;SDS011;41533;51.390;0.074;2023-04-06T14:58:21;2.00;;;0.70;;
54412;SDS011;41533;51.390;0.074;2023-04-06T15:00:54;4.68;;;1.02;;
54412;SDS011;41533;51.390;0.074;2023-04-06T15:03:22;1.30;;;0.60;;
54412;SDS011;41533;51.390;0.074;2023-04-06T15:05:52;1.58;;;0.70;;
54412;SDS011;41533;51.390;0.074;2023-04-06T15:08:19;1.13;;;0.70;;